sensor_id;sensor_type;location;lat;lon;timestamp;pressure;altitude;pressure_sealevel;temperature;humidity
63033;BME280;49121;38.932;-9.018;2023-02-16T00:00:24;111992.50;;;-145.11;69.63
63033;BME280;49121;38.932;-9.018;2023-02-16T00:02:26;111992.50;;;-145.11;69.38
63033;BME280;49121;38.932;-9.018;2023-02-16T00:04:29;111992.50;;;-145.11;69.39
63033;BME280;49121;38.932;-9.018;2023-02-16T00:06:30;111992.50;;;-145.11;69.38
63033;BME280;49121;38.932;-9.018;2023-02-16T00:08:35;111992.50;;;-145.11;69.20
63033;BME280;49121;38.932;-9.018;2023-02-16T00:10:37;111992.50;;;-145.11;69.18
63033;BME280;49121;38.932;-9.018;2023-02-16T00:12:38;111992.50;;;-145.11;69.50
63033;BME280;49121;38.932;-9.018;2023-02-16T00:14:57;111992.50;;;-145.11;69.62
63033;BME280;49121;38.932;-9.018;2023-02-16T00:16:58;111992.50;;;-145.11;69.64
63033;BME280;49121;38.932;-9.018;2023-02-16T00:18:59;111992.50;;;-145.11;69.66
63033;BME280;49121;38.932;-9.018;2023-02-16T00:21:00;111992.50;;;-145.11;69.63
63033;BME280;49121;38.932;-9.018;2023-02-16T00:23:00;111992.50;;;-145.11;69.82
63033;BME280;49121;38.932;-9.018;2023-02-16T00:25:01;111992.50;;;-145.11;69.57
63033;BME280;49121;38.932;-9.018;2023-02-16T00:27:02;111992.50;;;-145.11;69.80
63033;BME280;49121;38.932;-9.018;2023-02-16T00:29:03;111992.50;;;-145.11;70.08
63033;BME280;49121;38.932;-9.018;2023-02-16T00:31:04;111992.50;;;-145.11;69.96
63033;BME280;49121;38.932;-9.018;2023-02-16T00:33:19;111992.50;;;-145.11;70.25
63033;BME280;49121;38.932;-9.018;2023-02-16T00:35:20;111992.50;;;-145.11;70.48
63033;BME280;49121;38.932;-9.018;2023-02-16T00:37:21;111992.50;;;-145.11;70.55
63033;BME280;49121;38.932;-9.018;2023-02-16T00:39:23;111992.50;;;-145.11;71.04
63033;BME280;49121;38.932;-9.018;2023-02-16T00:41:24;111992.50;;;-145.11;71.25
63033;BME280;49121;38.932;-9.018;2023-02-16T00:43:43;111992.50;;;-145.11;71.18
63033;BME280;49121;38.932;-9.018;2023-02-16T00:45:44;111992.50;;;-145.11;71.36
63033;BME280;49121;38.932;-9.018;2023-02-16T00:47:45;111992.50;;;-145.11;71.26
63033;BME280;49121;38.932;-9.018;2023-02-16T00:49:51;111992.50;;;-145.11;71.29
63033;BME280;49121;38.932;-9.018;2023-02-16T00:51:52;111992.50;;;-145.11;71.68
63033;BME280;49121;38.932;-9.018;2023-02-16T00:53:57;111992.50;;;-145.11;71.68
63033;BME280;49121;38.932;-9.018;2023-02-16T00:55:57;111992.50;;;-145.11;72.10
63033;BME280;49121;38.932;-9.018;2023-02-16T00:58:20;111992.50;;;-145.11;71.86
63033;BME280;49121;38.932;-9.018;2023-02-16T01:00:29;111992.50;;;-145.11;71.43
63033;BME280;49121;38.932;-9.018;2023-02-16T01:02:31;111992.50;;;-145.11;71.24
63033;BME280;49121;38.932;-9.018;2023-02-16T01:04:32;111992.50;;;-145.11;71.18
63033;BME280;49121;38.932;-9.018;2023-02-16T01:06:32;111992.50;;;-145.11;70.94
63033;BME280;49121;38.932;-9.018;2023-02-16T01:09:08;111992.50;;;-145.11;71.18
63033;BME280;49121;38.932;-9.018;2023-02-16T01:11:29;111992.50;;;-145.11;71.16
63033;BME280;49121;38.932;-9.018;2023-02-16T01:13:30;111992.50;;;-145.11;71.24
63033;BME280;49121;38.932;-9.018;2023-02-16T01:15:32;111992.50;;;-145.11;71.39
63033;BME280;49121;38.932;-9.018;2023-02-16T01:19:55;111992.50;;;-145.11;71.61
63033;BME280;49121;38.932;-9.018;2023-02-16T01:21:56;111992.50;;;-145.11;72.11
63033;BME280;49121;38.932;-9.018;2023-02-16T01:23:56;111992.50;;;-145.11;72.38
63033;BME280;49121;38.932;-9.018;2023-02-16T01:25:57;111992.50;;;-145.11;72.60
63033;BME280;49121;38.932;-9.018;2023-02-16T01:27:57;111992.50;;;-145.11;72.27
63033;BME280;49121;38.932;-9.018;2023-02-16T01:29:58;111992.50;;;-145.11;72.21
63033;BME280;49121;38.932;-9.018;2023-02-16T01:31:59;111992.50;;;-145.11;72.51
63033;BME280;49121;38.932;-9.018;2023-02-16T01:34:00;111992.50;;;-145.11;72.79
63033;BME280;49121;38.932;-9.018;2023-02-16T01:36:01;111992.50;;;-145.11;72.41
63033;BME280;49121;38.932;-9.018;2023-02-16T01:38:03;111992.50;;;-145.11;72.35
63033;BME280;49121;38.932;-9.018;2023-02-16T01:40:04;111992.50;;;-145.11;71.42
63033;BME280;49121;38.932;-9.018;2023-02-16T01:42:17;111992.50;;;-145.11;70.62
63033;BME280;49121;38.932;-9.018;2023-02-16T01:44:57;111992.50;;;-145.11;70.35
63033;BME280;49121;38.932;-9.018;2023-02-16T01:49:13;111992.50;;;-145.11;70.04
63033;BME280;49121;38.932;-9.018;2023-02-16T01:51:30;111992.50;;;-145.11;70.29
63033;BME280;49121;38.932;-9.018;2023-02-16T01:55:57;111992.50;;;-145.11;70.60
63033;BME280;49121;38.932;-9.018;2023-02-16T01:58:05;111992.50;;;-145.11;70.77
63033;BME280;49121;38.932;-9.018;2023-02-16T02:01:18;111992.50;;;-145.11;71.02
63033;BME280;49121;38.932;-9.018;2023-02-16T02:02:54;111992.50;;;-145.11;70.71
63033;BME280;49121;38.932;-9.018;2023-02-16T02:05:23;111992.50;;;-145.11;70.88
63033;BME280;49121;38.932;-9.018;2023-02-16T02:10:20;111992.50;;;-145.11;70.15
63033;BME280;49121;38.932;-9.018;2023-02-16T02:12:34;111992.50;;;-145.11;69.52
63033;BME280;49121;38.932;-9.018;2023-02-16T02:14:39;111992.50;;;-145.11;69.27
63033;BME280;49121;38.932;-9.018;2023-02-16T02:16:57;111992.50;;;-145.11;69.11
63033;BME280;49121;38.932;-9.018;2023-02-16T02:18:59;111992.50;;;-145.11;69.35
63033;BME280;49121;38.932;-9.018;2023-02-16T02:30:24;111992.50;;;-145.11;68.62
63033;BME280;49121;38.932;-9.018;2023-02-16T02:34:57;111992.50;;;-145.11;69.28
63033;BME280;49121;38.932;-9.018;2023-02-16T02:44:07;111992.50;;;-145.11;69.17
63033;BME280;49121;38.932;-9.018;2023-02-16T02:46:09;111992.50;;;-145.11;69.15
63033;BME280;49121;38.932;-9.018;2023-02-16T02:48:32;111992.50;;;-145.11;69.51
63033;BME280;49121;38.932;-9.018;2023-02-16T02:50:40;111992.50;;;-145.11;70.00
63033;BME280;49121;38.932;-9.018;2023-02-16T02:53:11;111992.50;;;-145.11;70.63
63033;BME280;49121;38.932;-9.018;2023-02-16T02:55:12;111992.50;;;-145.11;70.70
63033;BME280;49121;38.932;-9.018;2023-02-16T02:57:39;111992.50;;;-145.11;70.94
63033;BME280;49121;38.932;-9.018;2023-02-16T03:00:03;111992.50;;;-145.11;70.92
63033;BME280;49121;38.932;-9.018;2023-02-16T03:02:25;111992.50;;;-145.11;70.37
63033;BME280;49121;38.932;-9.018;2023-02-16T03:07:06;111992.50;;;-145.11;70.71
63033;BME280;49121;38.932;-9.018;2023-02-16T03:09:26;111992.50;;;-145.11;71.08
63033;BME280;49121;38.932;-9.018;2023-02-16T03:11:46;111992.50;;;-145.11;70.88
63033;BME280;49121;38.932;-9.018;2023-02-16T03:14:35;111992.50;;;-145.11;71.17
63033;BME280;49121;38.932;-9.018;2023-02-16T03:16:49;111992.50;;;-145.11;71.68
63033;BME280;49121;38.932;-9.018;2023-02-16T03:19:12;111992.50;;;-145.11;71.83
63033;BME280;49121;38.932;-9.018;2023-02-16T03:21:34;111992.50;;;-145.11;71.95
63033;BME280;49121;38.932;-9.018;2023-02-16T03:23:54;111992.50;;;-145.11;71.63
63033;BME280;49121;38.932;-9.018;2023-02-16T03:26:15;111992.50;;;-145.11;71.85
63033;BME280;49121;38.932;-9.018;2023-02-16T03:28:37;111992.50;;;-145.11;72.07
63033;BME280;49121;38.932;-9.018;2023-02-16T03:30:58;111992.50;;;-145.11;72.34
63033;BME280;49121;38.932;-9.018;2023-02-16T03:33:00;111992.50;;;-145.11;72.85
63033;BME280;49121;38.932;-9.018;2023-02-16T03:35:01;111992.50;;;-145.11;72.89
63033;BME280;49121;38.932;-9.018;2023-02-16T03:37:02;111992.50;;;-145.11;73.52
63033;BME280;49121;38.932;-9.018;2023-02-16T03:39:04;111992.50;;;-145.11;73.47
63033;BME280;49121;38.932;-9.018;2023-02-16T03:41:06;111992.50;;;-145.11;73.62
63033;BME280;49121;38.932;-9.018;2023-02-16T03:43:07;111992.50;;;-145.11;73.49
63033;BME280;49121;38.932;-9.018;2023-02-16T03:45:08;111992.50;;;-145.11;73.45
63033;BME280;49121;38.932;-9.018;2023-02-16T03:49:50;111992.50;;;-145.11;73.87
63033;BME280;49121;38.932;-9.018;2023-02-16T03:51:51;111992.50;;;-145.11;73.79
63033;BME280;49121;38.932;-9.018;2023-02-16T03:53:52;111992.50;;;-145.11;73.98
63033;BME280;49121;38.932;-9.018;2023-02-16T03:55:52;111992.50;;;-145.11;73.51
63033;BME280;49121;38.932;-9.018;2023-02-16T03:57:53;111992.50;;;-145.11;72.87
63033;BME280;49121;38.932;-9.018;2023-02-16T04:00:21;111992.50;;;-145.11;72.38
63033;BME280;49121;38.932;-9.018;2023-02-16T04:02:22;111992.50;;;-145.11;72.56
63033;BME280;49121;38.932;-9.018;2023-02-16T04:04:23;111992.50;;;-145.11;72.68
63033;BME280;49121;38.932;-9.018;2023-02-16T04:06:24;111992.50;;;-145.11;72.87
63033;BME280;49121;38.932;-9.018;2023-02-16T04:10:47;111992.50;;;-145.11;73.45
63033;BME280;49121;38.932;-9.018;2023-02-16T04:12:47;111992.50;;;-145.11;73.62
63033;BME280;49121;38.932;-9.018;2023-02-16T04:14:48;111992.50;;;-145.11;73.73
63033;BME280;49121;38.932;-9.018;2023-02-16T04:16:49;111992.50;;;-145.11;73.60
63033;BME280;49121;38.932;-9.018;2023-02-16T04:18:50;111992.50;;;-145.11;73.89
63033;BME280;49121;38.932;-9.018;2023-02-16T04:20:50;111992.50;;;-145.11;73.52
63033;BME280;49121;38.932;-9.018;2023-02-16T04:22:53;111992.50;;;-145.11;73.21
63033;BME280;49121;38.932;-9.018;2023-02-16T04:24:54;111992.50;;;-145.11;72.85
63033;BME280;49121;38.932;-9.018;2023-02-16T04:26:55;111992.50;;;-145.11;72.78
63033;BME280;49121;38.932;-9.018;2023-02-16T04:28:56;111992.50;;;-145.11;72.71
63033;BME280;49121;38.932;-9.018;2023-02-16T04:30:56;111992.50;;;-145.11;73.18
63033;BME280;49121;38.932;-9.018;2023-02-16T04:32:57;111992.50;;;-145.11;73.08
63033;BME280;49121;38.932;-9.018;2023-02-16T04:34:58;111992.50;;;-145.11;73.42
63033;BME280;49121;38.932;-9.018;2023-02-16T04:36:59;111992.50;;;-145.11;73.88
63033;BME280;49121;38.932;-9.018;2023-02-16T04:39:02;111992.50;;;-145.11;74.39
63033;BME280;49121;38.932;-9.018;2023-02-16T04:41:03;111992.50;;;-145.11;74.76
63033;BME280;49121;38.932;-9.018;2023-02-16T04:45:42;111992.50;;;-145.11;75.10
63033;BME280;49121;38.932;-9.018;2023-02-16T04:47:42;111992.50;;;-145.11;75.50
63033;BME280;49121;38.932;-9.018;2023-02-16T04:49:43;111992.50;;;-145.11;75.52
63033;BME280;49121;38.932;-9.018;2023-02-16T04:54:03;111992.50;;;-145.11;75.52
63033;BME280;49121;38.932;-9.018;2023-02-16T04:56:04;111992.50;;;-145.11;75.80
63033;BME280;49121;38.932;-9.018;2023-02-16T04:58:04;111992.50;;;-145.11;76.49
63033;BME280;49121;38.932;-9.018;2023-02-16T05:00:07;111992.50;;;-145.11;76.68
63033;BME280;49121;38.932;-9.018;2023-02-16T05:02:08;111992.50;;;-145.11;77.17
63033;BME280;49121;38.932;-9.018;2023-02-16T05:04:08;111992.50;;;-145.11;76.87
63033;BME280;49121;38.932;-9.018;2023-02-16T05:06:09;111992.50;;;-145.11;76.21
63033;BME280;49121;38.932;-9.018;2023-02-16T05:08:10;111992.50;;;-145.11;76.43
63033;BME280;49121;38.932;-9.018;2023-02-16T05:10:15;111992.50;;;-145.11;76.67
63033;BME280;49121;38.932;-9.018;2023-02-16T05:12:19;111992.50;;;-145.11;76.95
63033;BME280;49121;38.932;-9.018;2023-02-16T05:15:02;111992.50;;;-145.11;77.36
63033;BME280;49121;38.932;-9.018;2023-02-16T05:17:23;111992.50;;;-145.11;77.59
63033;BME280;49121;38.932;-9.018;2023-02-16T05:19:24;111992.50;;;-145.11;77.75
63033;BME280;49121;38.932;-9.018;2023-02-16T05:21:25;111992.50;;;-145.11;77.81
63033;BME280;49121;38.932;-9.018;2023-02-16T05:23:32;111992.50;;;-145.11;78.66
63033;BME280;49121;38.932;-9.018;2023-02-16T05:25:32;111992.50;;;-145.11;78.63
63033;BME280;49121;38.932;-9.018;2023-02-16T05:27:33;111992.50;;;-145.11;78.50
63033;BME280;49121;38.932;-9.018;2023-02-16T05:29:34;111992.50;;;-145.11;78.25
63033;BME280;49121;38.932;-9.018;2023-02-16T05:31:34;111992.50;;;-145.11;78.43
63033;BME280;49121;38.932;-9.018;2023-02-16T05:33:35;111992.50;;;-145.11;78.60
63033;BME280;49121;38.932;-9.018;2023-02-16T05:35:36;111992.50;;;-145.11;78.66
63033;BME280;49121;38.932;-9.018;2023-02-16T05:37:36;111992.50;;;-145.11;78.57
63033;BME280;49121;38.932;-9.018;2023-02-16T05:39:37;111992.50;;;-145.11;78.57
63033;BME280;49121;38.932;-9.018;2023-02-16T05:41:37;111992.50;;;-145.11;78.57
63033;BME280;49121;38.932;-9.018;2023-02-16T05:43:38;111992.50;;;-145.11;78.57
63033;BME280;49121;38.932;-9.018;2023-02-16T05:45:43;111992.50;;;-145.11;79.13
63033;BME280;49121;38.932;-9.018;2023-02-16T05:47:44;111992.50;;;-145.11;79.15
63033;BME280;49121;38.932;-9.018;2023-02-16T05:49:44;111992.50;;;-145.11;79.47
63033;BME280;49121;38.932;-9.018;2023-02-16T05:51:45;111992.50;;;-145.11;80.21
63033;BME280;49121;38.932;-9.018;2023-02-16T05:53:46;111992.50;;;-145.11;80.20
63033;BME280;49121;38.932;-9.018;2023-02-16T05:56:06;111992.50;;;-145.11;80.61
63033;BME280;49121;38.932;-9.018;2023-02-16T05:58:25;111992.50;;;-145.11;80.44
63033;BME280;49121;38.932;-9.018;2023-02-16T06:00:44;111992.50;;;-145.11;80.48
63033;BME280;49121;38.932;-9.018;2023-02-16T06:02:45;111992.50;;;-145.11;80.42
63033;BME280;49121;38.932;-9.018;2023-02-16T06:04:46;111992.50;;;-145.11;80.08
63033;BME280;49121;38.932;-9.018;2023-02-16T06:06:48;111992.50;;;-145.11;80.08
63033;BME280;49121;38.932;-9.018;2023-02-16T06:08:49;111992.50;;;-145.11;80.36
63033;BME280;49121;38.932;-9.018;2023-02-16T06:10:50;111992.50;;;-145.11;80.33
63033;BME280;49121;38.932;-9.018;2023-02-16T06:12:51;111992.50;;;-145.11;80.63
63033;BME280;49121;38.932;-9.018;2023-02-16T06:15:11;111992.50;;;-145.11;80.55
63033;BME280;49121;38.932;-9.018;2023-02-16T06:17:11;111992.50;;;-145.11;80.84
63033;BME280;49121;38.932;-9.018;2023-02-16T06:19:13;111992.50;;;-145.11;80.54
63033;BME280;49121;38.932;-9.018;2023-02-16T06:21:14;111992.50;;;-145.11;80.39
63033;BME280;49121;38.932;-9.018;2023-02-16T06:23:15;111992.50;;;-145.11;80.75
63033;BME280;49121;38.932;-9.018;2023-02-16T06:25:16;111992.50;;;-145.11;80.65
63033;BME280;49121;38.932;-9.018;2023-02-16T06:27:19;111992.50;;;-145.11;80.50
63033;BME280;49121;38.932;-9.018;2023-02-16T06:29:20;111992.50;;;-145.11;80.48
63033;BME280;49121;38.932;-9.018;2023-02-16T06:31:20;111992.50;;;-145.11;80.51
63033;BME280;49121;38.932;-9.018;2023-02-16T06:33:21;111992.50;;;-145.11;80.23
63033;BME280;49121;38.932;-9.018;2023-02-16T06:40:38;111992.50;;;-145.11;79.69
63033;BME280;49121;38.932;-9.018;2023-02-16T06:42:57;111992.50;;;-145.11;79.16
63033;BME280;49121;38.932;-9.018;2023-02-16T06:44:58;111992.50;;;-145.11;78.93
63033;BME280;49121;38.932;-9.018;2023-02-16T06:46:58;111992.50;;;-145.11;78.92
63033;BME280;49121;38.932;-9.018;2023-02-16T06:48:59;111992.50;;;-145.11;78.73
63033;BME280;49121;38.932;-9.018;2023-02-16T06:51:00;111992.50;;;-145.11;79.01
63033;BME280;49121;38.932;-9.018;2023-02-16T06:53:00;111992.50;;;-145.11;79.21
63033;BME280;49121;38.932;-9.018;2023-02-16T06:55:19;111992.50;;;-145.11;79.51
63033;BME280;49121;38.932;-9.018;2023-02-16T06:57:26;111992.50;;;-145.11;79.68
63033;BME280;49121;38.932;-9.018;2023-02-16T06:59:26;111992.50;;;-145.11;79.81
63033;BME280;49121;38.932;-9.018;2023-02-16T07:01:27;111992.50;;;-145.11;79.81
63033;BME280;49121;38.932;-9.018;2023-02-16T07:03:51;111992.50;;;-145.11;79.53
63033;BME280;49121;38.932;-9.018;2023-02-16T07:05:55;111992.50;;;-145.11;79.77
63033;BME280;49121;38.932;-9.018;2023-02-16T07:07:56;111992.50;;;-145.11;79.92
63033;BME280;49121;38.932;-9.018;2023-02-16T07:09:56;111992.50;;;-145.11;80.39
63033;BME280;49121;38.932;-9.018;2023-02-16T07:12:02;111992.50;;;-145.11;80.61
63033;BME280;49121;38.932;-9.018;2023-02-16T07:14:03;111992.50;;;-145.11;80.66
63033;BME280;49121;38.932;-9.018;2023-02-16T07:16:05;111992.50;;;-145.11;80.61
63033;BME280;49121;38.932;-9.018;2023-02-16T07:18:06;111992.50;;;-145.11;80.30
63033;BME280;49121;38.932;-9.018;2023-02-16T07:20:07;111992.50;;;-145.11;80.04
63033;BME280;49121;38.932;-9.018;2023-02-16T07:22:07;111992.50;;;-145.11;79.82
63033;BME280;49121;38.932;-9.018;2023-02-16T07:24:08;111992.50;;;-145.11;79.76
63033;BME280;49121;38.932;-9.018;2023-02-16T07:26:09;111992.50;;;-145.11;79.40
63033;BME280;49121;38.932;-9.018;2023-02-16T07:28:09;111992.50;;;-145.11;79.18
63033;BME280;49121;38.932;-9.018;2023-02-16T07:30:10;111992.50;;;-145.11;79.29
63033;BME280;49121;38.932;-9.018;2023-02-16T07:32:12;111992.50;;;-145.11;79.23
63033;BME280;49121;38.932;-9.018;2023-02-16T07:34:13;111992.50;;;-145.11;79.55
63033;BME280;49121;38.932;-9.018;2023-02-16T07:36:13;111992.50;;;-145.11;79.32
63033;BME280;49121;38.932;-9.018;2023-02-16T07:38:14;111992.50;;;-145.11;79.29
63033;BME280;49121;38.932;-9.018;2023-02-16T07:40:15;111992.50;;;-145.11;79.24
63033;BME280;49121;38.932;-9.018;2023-02-16T07:42:15;111992.50;;;-145.11;79.24
63033;BME280;49121;38.932;-9.018;2023-02-16T07:44:20;111992.50;;;-145.11;78.92
63033;BME280;49121;38.932;-9.018;2023-02-16T07:46:21;111992.50;;;-145.11;78.78
63033;BME280;49121;38.932;-9.018;2023-02-16T07:48:22;111992.50;;;-145.11;78.36
63033;BME280;49121;38.932;-9.018;2023-02-16T07:50:23;111992.50;;;-145.11;78.55
63033;BME280;49121;38.932;-9.018;2023-02-16T07:52:24;111992.50;;;-145.11;78.35
63033;BME280;49121;38.932;-9.018;2023-02-16T07:54:31;111992.50;;;-145.11;77.10
63033;BME280;49121;38.932;-9.018;2023-02-16T07:56:33;111992.50;;;-145.11;75.98
63033;BME280;49121;38.932;-9.018;2023-02-16T07:58:33;111992.50;;;-145.11;75.00
63033;BME280;49121;38.932;-9.018;2023-02-16T08:00:36;111992.50;;;-145.11;73.48
63033;BME280;49121;38.932;-9.018;2023-02-16T08:02:36;111992.50;;;-145.11;73.21
63033;BME280;49121;38.932;-9.018;2023-02-16T08:04:37;111992.50;;;-145.11;72.87
63033;BME280;49121;38.932;-9.018;2023-02-16T08:06:38;111992.50;;;-145.11;72.22
63033;BME280;49121;38.932;-9.018;2023-02-16T08:08:39;111992.50;;;-145.11;71.18
63033;BME280;49121;38.932;-9.018;2023-02-16T08:10:40;111992.50;;;-145.11;69.83
63033;BME280;49121;38.932;-9.018;2023-02-16T08:12:42;111992.50;;;-145.11;68.54
63033;BME280;49121;38.932;-9.018;2023-02-16T08:14:43;111992.50;;;-145.11;68.72
63033;BME280;49121;38.932;-9.018;2023-02-16T08:16:45;111992.50;;;-145.11;68.74
63033;BME280;49121;38.932;-9.018;2023-02-16T08:18:48;111992.50;;;-145.11;68.87
63033;BME280;49121;38.932;-9.018;2023-02-16T08:20:50;111992.50;;;-145.11;66.83
63033;BME280;49121;38.932;-9.018;2023-02-16T08:22:53;111992.50;;;-145.11;66.58
63033;BME280;49121;38.932;-9.018;2023-02-16T08:25:03;111992.50;;;-145.11;66.37
63033;BME280;49121;38.932;-9.018;2023-02-16T08:27:05;111992.50;;;-145.11;66.08
63033;BME280;49121;38.932;-9.018;2023-02-16T08:29:07;111992.50;;;-145.11;65.41
63033;BME280;49121;38.932;-9.018;2023-02-16T08:31:22;111992.50;;;-145.11;64.94
63033;BME280;49121;38.932;-9.018;2023-02-16T08:33:23;111992.50;;;-145.11;65.50
63033;BME280;49121;38.932;-9.018;2023-02-16T08:35:24;111992.50;;;-145.11;64.99
63033;BME280;49121;38.932;-9.018;2023-02-16T08:37:25;111992.50;;;-145.11;64.97
63033;BME280;49121;38.932;-9.018;2023-02-16T08:39:28;111992.50;;;-145.11;64.32
63033;BME280;49121;38.932;-9.018;2023-02-16T08:41:34;111992.50;;;-145.11;64.16
63033;BME280;49121;38.932;-9.018;2023-02-16T08:43:35;111992.50;;;-145.11;64.01
63033;BME280;49121;38.932;-9.018;2023-02-16T08:45:35;111992.50;;;-145.11;62.59
63033;BME280;49121;38.932;-9.018;2023-02-16T08:47:51;111992.50;;;-145.11;62.78
63033;BME280;49121;38.932;-9.018;2023-02-16T08:49:52;111992.50;;;-145.11;62.11
63033;BME280;49121;38.932;-9.018;2023-02-16T08:51:54;111992.50;;;-145.11;62.04
63033;BME280;49121;38.932;-9.018;2023-02-16T08:53:59;111992.50;;;-145.11;62.06
63033;BME280;49121;38.932;-9.018;2023-02-16T08:56:02;111992.50;;;-145.11;61.71
63033;BME280;49121;38.932;-9.018;2023-02-16T08:58:03;111992.50;;;-145.11;61.37
63033;BME280;49121;38.932;-9.018;2023-02-16T09:00:05;111992.50;;;-145.11;61.08
63033;BME280;49121;38.932;-9.018;2023-02-16T09:02:24;111992.50;;;-145.11;61.21
63033;BME280;49121;38.932;-9.018;2023-02-16T09:04:26;111992.50;;;-145.11;60.21
63033;BME280;49121;38.932;-9.018;2023-02-16T09:06:29;111992.50;;;-145.11;60.19
63033;BME280;49121;38.932;-9.018;2023-02-16T09:08:30;111992.50;;;-145.11;59.25
63033;BME280;49121;38.932;-9.018;2023-02-16T09:10:32;111992.50;;;-145.11;58.40
63033;BME280;49121;38.932;-9.018;2023-02-16T09:12:32;111992.50;;;-145.11;58.46
63033;BME280;49121;38.932;-9.018;2023-02-16T09:14:34;111992.50;;;-145.11;57.96
63033;BME280;49121;38.932;-9.018;2023-02-16T09:16:37;111992.50;;;-145.11;57.59
63033;BME280;49121;38.932;-9.018;2023-02-16T09:18:45;111992.50;;;-145.11;57.46
63033;BME280;49121;38.932;-9.018;2023-02-16T09:20:46;111992.50;;;-145.11;57.59
63033;BME280;49121;38.932;-9.018;2023-02-16T09:22:46;111992.50;;;-145.11;57.06
63033;BME280;49121;38.932;-9.018;2023-02-16T09:24:50;111992.50;;;-145.11;55.68
63033;BME280;49121;38.932;-9.018;2023-02-16T09:26:51;111992.50;;;-145.11;55.16
63033;BME280;49121;38.932;-9.018;2023-02-16T09:28:53;111992.50;;;-145.11;53.00
63033;BME280;49121;38.932;-9.018;2023-02-16T09:30:53;111992.50;;;-145.11;51.68
63033;BME280;49121;38.932;-9.018;2023-02-16T09:32:57;111992.50;;;-145.11;51.61
63033;BME280;49121;38.932;-9.018;2023-02-16T09:34:58;111992.50;;;-145.11;51.67
63033;BME280;49121;38.932;-9.018;2023-02-16T09:36:58;111992.50;;;-145.11;50.17
63033;BME280;49121;38.932;-9.018;2023-02-16T09:39:02;111992.50;;;-145.11;49.08
63033;BME280;49121;38.932;-9.018;2023-02-16T09:41:13;111992.50;;;-145.11;49.20
63033;BME280;49121;38.932;-9.018;2023-02-16T09:45:16;111992.50;;;-145.11;48.51
63033;BME280;49121;38.932;-9.018;2023-02-16T09:47:31;111992.50;;;-145.11;48.26
63033;BME280;49121;38.932;-9.018;2023-02-16T09:49:39;111992.50;;;-145.11;48.65
63033;BME280;49121;38.932;-9.018;2023-02-16T09:51:40;111992.50;;;-145.11;47.89
63033;BME280;49121;38.932;-9.018;2023-02-16T09:53:41;111992.50;;;-145.11;47.30
63033;BME280;49121;38.932;-9.018;2023-02-16T09:58:32;111992.50;;;-145.11;46.55
63033;BME280;49121;38.932;-9.018;2023-02-16T10:05:43;111992.50;;;-145.11;45.99
63033;BME280;49121;38.932;-9.018;2023-02-16T10:07:59;111992.50;;;-145.11;45.88
63033;BME280;49121;38.932;-9.018;2023-02-16T10:10:02;111992.50;;;-145.11;45.67
63033;BME280;49121;38.932;-9.018;2023-02-16T10:12:10;111992.50;;;-145.11;45.67
63033;BME280;49121;38.932;-9.018;2023-02-16T10:16:29;111992.50;;;-145.11;45.40
63033;BME280;49121;38.932;-9.018;2023-02-16T10:18:33;111992.50;;;-145.11;45.85
63033;BME280;49121;38.932;-9.018;2023-02-16T10:20:37;111992.50;;;-145.11;45.46
63033;BME280;49121;38.932;-9.018;2023-02-16T10:22:54;111992.50;;;-145.11;44.75
63033;BME280;49121;38.932;-9.018;2023-02-16T10:25:08;111992.50;;;-145.11;44.88
63033;BME280;49121;38.932;-9.018;2023-02-16T10:27:14;111992.50;;;-145.11;44.56
63033;BME280;49121;38.932;-9.018;2023-02-16T10:29:18;111992.50;;;-145.11;44.99
63033;BME280;49121;38.932;-9.018;2023-02-16T10:31:49;111992.50;;;-145.11;45.22
63033;BME280;49121;38.932;-9.018;2023-02-16T10:34:18;111992.50;;;-145.11;44.89
63033;BME280;49121;38.932;-9.018;2023-02-16T10:37:13;111992.50;;;-145.11;44.91
63033;BME280;49121;38.932;-9.018;2023-02-16T10:39:21;111992.50;;;-145.11;44.82
63033;BME280;49121;38.932;-9.018;2023-02-16T10:41:41;111992.50;;;-145.11;44.68
63033;BME280;49121;38.932;-9.018;2023-02-16T10:44:36;111992.50;;;-145.11;45.19
63033;BME280;49121;38.932;-9.018;2023-02-16T10:46:27;111992.50;;;-145.11;44.65
63033;BME280;49121;38.932;-9.018;2023-02-16T10:48:30;111992.50;;;-145.11;44.94
63033;BME280;49121;38.932;-9.018;2023-02-16T10:50:39;111992.50;;;-145.11;45.11
63033;BME280;49121;38.932;-9.018;2023-02-16T10:52:51;111992.50;;;-145.11;45.19
63033;BME280;49121;38.932;-9.018;2023-02-16T10:54:55;111992.50;;;-145.11;44.49
63033;BME280;49121;38.932;-9.018;2023-02-16T10:57:10;111992.50;;;-145.11;44.79
63033;BME280;49121;38.932;-9.018;2023-02-16T10:59:38;111992.50;;;-145.11;45.05
63033;BME280;49121;38.932;-9.018;2023-02-16T11:01:46;111992.50;;;-145.11;44.40
63033;BME280;49121;38.932;-9.018;2023-02-16T11:03:49;111992.50;;;-145.11;44.85
63033;BME280;49121;38.932;-9.018;2023-02-16T11:05:51;111992.50;;;-145.11;44.22
63033;BME280;49121;38.932;-9.018;2023-02-16T11:07:54;111992.50;;;-145.11;44.53
63033;BME280;49121;38.932;-9.018;2023-02-16T11:10:21;111992.50;;;-145.11;44.41
63033;BME280;49121;38.932;-9.018;2023-02-16T11:12:34;111992.50;;;-145.11;43.94
63033;BME280;49121;38.932;-9.018;2023-02-16T11:14:36;111992.50;;;-145.11;44.59
63033;BME280;49121;38.932;-9.018;2023-02-16T11:16:39;111992.50;;;-145.11;44.30
63033;BME280;49121;38.932;-9.018;2023-02-16T11:18:44;111992.50;;;-145.11;44.56
63033;BME280;49121;38.932;-9.018;2023-02-16T11:22:47;111992.50;;;-145.11;44.82
63033;BME280;49121;38.932;-9.018;2023-02-16T11:24:48;111992.50;;;-145.11;45.02
63033;BME280;49121;38.932;-9.018;2023-02-16T11:27:27;111992.50;;;-145.11;45.53
63033;BME280;49121;38.932;-9.018;2023-02-16T11:29:32;111992.50;;;-145.11;45.25
63033;BME280;49121;38.932;-9.018;2023-02-16T11:31:51;111992.50;;;-145.11;45.36
63033;BME280;49121;38.932;-9.018;2023-02-16T11:34:05;111992.50;;;-145.11;44.79